Time;durP1;ratioP1;P1;durP2;ratioP2;P2;SDS_P1;SDS_P2;PMS_P1;PMS_P2;Temp;Humidity;BMP_temperature;BMP_pressure;BME280_temperature;BME280_humidity;BME280_pressure;Samples;Min_cycle;Max_cycle;Signal;HPM_P1;HPM_P2
2022/01/29 00:01:30;;;;;;;29.48;16.45;;;;;;;4.37;46.81;95426.47;5042747;28;20568;-78
2022/01/29 00:03:55;;;;;;;21.80;12.35;;;;;;;4.33;46.30;95426.03;5060883;28;20037;-79
2022/01/29 00:06:21;;;;;;;20.35;10.57;;;;;;;4.30;46.90;95434.09;5062299;28;20035;-78
2022/01/29 00:08:46;;;;;;;17.88;9.85;;;;;;;4.34;47.03;95429.41;5047692;28;20047;-78
2022/01/29 00:11:15;;;;;;;18.92;9.68;;;;;;;4.30;47.37;95433.31;5061688;28;20120;-78
2022/01/29 00:13:40;;;;;;;22.75;11.02;;;;;;;4.31;47.43;95437.47;5065523;28;20037;-78
2022/01/29 00:16:06;;;;;;;21.48;10.25;;;;;;;4.31;47.52;95432.34;5046739;28;20048;-78
2022/01/29 00:18:32;;;;;;;13.70;8.30;;;;;;;4.24;47.43;95436.59;5046154;28;20069;-78
2022/01/29 00:21:01;;;;;;;28.02;12.15;;;;;;;4.22;47.87;95445.28;5045504;28;20028;-78
2022/01/29 00:23:27;;;;;;;41.75;19.17;;;;;;;4.22;48.01;95440.13;5064117;28;20036;-78
2022/01/29 00:25:52;;;;;;;29.23;14.18;;;;;;;4.17;48.52;95447.59;5064031;28;20086;-78
2022/01/29 00:28:18;;;;;;;15.20;9.93;;;;;;;4.20;48.53;95441.28;5077103;28;20537;-78
2022/01/29 00:30:44;;;;;;;9.35;7.47;;;;;;;4.24;48.62;95446.91;5062257;28;20110;-78
2022/01/29 00:33:10;;;;;;;14.38;7.78;;;;;;;4.28;48.73;95445.56;5062134;28;20106;-78
2022/01/29 00:35:36;;;;;;;16.30;10.60;;;;;;;4.32;48.02;95442.44;5071521;28;20039;-78
2022/01/29 00:38:01;;;;;;;17.30;10.02;;;;;;;4.33;48.62;95443.25;5080423;28;20033;-78
2022/01/29 00:40:27;;;;;;;8.73;6.60;;;;;;;4.38;47.90;95438.34;5076779;28;20048;-78
2022/01/29 00:42:53;;;;;;;14.93;7.57;;;;;;;4.31;48.21;95437.47;5066900;28;20025;-78
2022/01/29 00:45:18;;;;;;;15.38;7.65;;;;;;;4.27;48.84;95431.09;5046346;23;20095;-79
2022/01/29 00:47:44;;;;;;;12.68;7.28;;;;;;;4.26;48.70;95424.34;5043869;28;20037;-78
2022/01/29 00:50:10;;;;;;;10.68;6.63;;;;;;;4.11;49.34;95412.28;5036288;28;20046;-78
2022/01/29 00:52:36;;;;;;;14.23;7.25;;;;;;;4.00;50.42;95420.41;5031020;28;20097;-78
2022/01/29 00:55:02;;;;;;;22.02;8.15;;;;;;;3.97;51.07;95428.50;5024995;28;20040;-78
2022/01/29 00:57:30;;;;;;;13.07;7.25;;;;;;;3.89;51.57;95426.78;5021951;28;20046;-78
2022/01/29 00:59:55;;;;;;;11.00;7.22;;;;;;;3.91;51.64;95431.78;5023184;28;20041;-78
2022/01/29 01:02:21;;;;;;;15.18;8.02;;;;;;;3.88;51.92;95437.25;4989773;28;20048;-78
2022/01/29 01:04:47;;;;;;;10.65;7.78;;;;;;;3.86;51.77;95428.91;5005510;28;20046;-78
2022/01/29 01:07:12;;;;;;;15.13;8.45;;;;;;;3.87;51.76;95430.50;5021976;28;20048;-78
2022/01/29 01:09:38;;;;;;;15.02;8.57;;;;;;;3.86;51.80;95436.63;5023404;28;20420;-78
2022/01/29 01:12:04;;;;;;;10.55;8.65;;;;;;;3.86;52.02;95429.72;5013559;28;20025;-78
2022/01/29 01:14:29;;;;;;;12.80;7.32;;;;;;;3.87;52.00;95430.50;5021648;28;20497;-78
2022/01/29 01:16:55;;;;;;;11.93;8.00;;;;;;;3.89;52.20;95423.41;5023145;28;20042;-77
2022/01/29 01:19:25;;;;;;;11.88;7.18;;;;;;;3.92;51.97;95433.38;5019651;28;20179;-77
2022/01/29 01:21:54;;;;;;;11.90;7.40;;;;;;;3.94;51.83;95421.13;4996622;28;20038;-77
2022/01/29 01:24:19;;;;;;;12.40;8.38;;;;;;;3.85;51.82;95412.69;5019891;28;20033;-77
2022/01/29 01:26:45;;;;;;;11.38;7.60;;;;;;;3.83;52.33;95417.19;5022018;28;20119;-77
2022/01/29 01:29:10;;;;;;;15.55;7.38;;;;;;;3.75;52.58;95412.16;5021163;28;20144;-77
2022/01/29 01:31:37;;;;;;;12.38;7.90;;;;;;;3.75;52.59;95411.34;4984876;28;20042;-77
2022/01/29 01:34:04;;;;;;;16.40;7.80;;;;;;;3.71;53.06;95407.50;5021579;28;20040;-77
2022/01/29 01:36:30;;;;;;;8.48;7.43;;;;;;;3.80;52.94;95414.19;5021125;28;20505;-77
2022/01/29 01:39:03;;;;;;;10.95;7.35;;;;;;;3.75;53.09;95421.63;4984448;28;20054;-77
2022/01/29 01:41:35;;;;;;;12.60;7.85;;;;;;;3.79;52.92;95421.09;5022659;28;20038;-78
2022/01/29 01:44:01;;;;;;;11.68;8.05;;;;;;;3.79;52.87;95418.53;5021859;28;20032;-78
2022/01/29 01:46:28;;;;;;;17.60;10.02;;;;;;;3.78;52.89;95416.13;5005265;28;20117;-78
2022/01/29 01:48:54;;;;;;;13.23;8.48;;;;;;;3.72;53.26;95416.81;5020710;28;20084;-78
2022/01/29 01:51:20;;;;;;;12.13;8.52;;;;;;;3.72;52.75;95427.09;5070238;23;20393;-78
2022/01/29 01:53:45;;;;;;;13.88;7.88;;;;;;;3.71;52.97;95420.38;5105209;28;20035;-78
2022/01/29 01:56:10;;;;;;;10.25;7.97;;;;;;;3.71;52.73;95410.88;5104697;28;20040;-79
2022/01/29 01:58:36;;;;;;;12.25;7.72;;;;;;;3.71;53.15;95416.00;5085343;28;20077;-79
2022/01/29 02:01:01;;;;;;;13.90;8.07;;;;;;;3.75;52.91;95416.50;5085928;28;20055;-78
2022/01/29 02:03:27;;;;;;;9.85;7.28;;;;;;;3.76;53.24;95418.88;5086696;28;20069;-78
2022/01/29 02:05:52;;;;;;;14.13;8.35;;;;;;;3.83;52.66;95418.97;5068488;28;20392;-78
2022/01/29 02:08:18;;;;;;;10.60;7.75;;;;;;;3.86;52.48;95413.47;5085393;28;20426;-78
2022/01/29 02:10:48;;;;;;;12.75;7.57;;;;;;;3.85;53.57;95422.16;5083809;28;20047;-79
2022/01/29 02:13:13;;;;;;;10.35;7.57;;;;;;;3.92;52.75;95423.88;5101406;28;20050;-78
2022/01/29 02:15:39;;;;;;;10.95;8.55;;;;;;;3.95;52.74;95420.16;5102524;28;20039;-78
2022/01/29 02:18:05;;;;;;;7.95;7.13;;;;;;;3.92;53.01;95415.38;5102078;28;20028;-78
2022/01/29 02:20:31;;;;;;;10.20;7.53;;;;;;;3.95;52.98;95420.16;5101670;28;20024;-78
2022/01/29 02:22:56;;;;;;;9.35;7.65;;;;;;;3.90;53.39;95422.44;5084584;28;20124;-79
2022/01/29 02:25:36;;;;;;;11.40;8.27;;;;;;;3.93;53.08;95429.81;5084423;28;20031;-78
2022/01/29 02:30:30;;;;;;;12.02;8.15;;;;;;;3.88;52.97;95432.09;5100874;22;20125;-78
2022/01/29 02:32:57;;;;;;;19.50;9.95;;;;;;;3.86;53.39;95429.72;5081647;28;20044;-78
2022/01/29 02:35:22;;;;;;;12.00;7.70;;;;;;;3.85;53.63;95422.16;5065078;28;20038;-78
2022/01/29 02:37:51;;;;;;;9.55;7.82;;;;;;;3.91;53.78;95431.78;5082679;28;20032;-78
2022/01/29 02:40:18;;;;;;;12.60;8.50;;;;;;;3.92;53.34;95425.66;5064216;28;20168;-78
2022/01/29 02:42:43;;;;;;;10.63;7.03;;;;;;;3.97;53.44;95436.22;5081403;28;20028;-78
2022/01/29 02:45:09;;;;;;;11.10;7.43;;;;;;;3.99;53.36;95434.25;5047173;28;20090;-78
2022/01/29 02:47:34;;;;;;;10.27;7.80;;;;;;;4.01;53.25;95436.66;5082113;28;20020;-78
2022/01/29 02:50:00;;;;;;;11.77;8.10;;;;;;;4.01;52.89;95440.03;5064411;28;20033;-78
2022/01/29 02:52:25;;;;;;;13.95;9.38;;;;;;;3.99;53.24;95444.56;5063679;28;20518;-78
2022/01/29 02:54:51;;;;;;;24.08;15.07;;;;;;;4.01;53.53;95442.59;5064036;28;20411;-78
2022/01/29 02:57:18;;;;;;;15.55;9.93;;;;;;;4.05;53.39;95440.47;5064227;28;20032;-78
2022/01/29 02:59:44;;;;;;;18.85;10.18;;;;;;;4.13;52.73;95436.06;5063740;28;20158;-79
2022/01/29 03:02:09;;;;;;;15.18;8.43;;;;;;;4.07;53.15;95446.25;5052674;28;20071;-78
2022/01/29 03:04:34;;;;;;;12.48;8.05;;;;;;;4.04;52.53;95437.09;5075049;28;20032;-77
2022/01/29 03:07:00;;;;;;;11.68;8.30;;;;;;;4.00;52.91;95442.78;5077366;28;20052;-78
2022/01/29 03:09:26;;;;;;;11.40;7.88;;;;;;;3.97;53.09;95438.00;5067066;28;20042;-77
2022/01/29 03:11:51;;;;;;;12.23;8.50;;;;;;;4.01;52.15;95450.31;5060951;28;20509;-77
2022/01/29 03:14:17;;;;;;;13.02;8.15;;;;;;;3.93;53.10;95442.69;5064412;28;20515;-78
2022/01/29 03:16:43;;;;;;;11.73;7.22;;;;;;;3.89;52.72;95444.78;5065242;28;20060;-77
2022/01/29 03:19:08;;;;;;;11.40;7.40;;;;;;;3.95;52.65;95442.50;5065522;28;20050;-77
2022/01/29 03:21:34;;;;;;;11.30;7.35;;;;;;;3.95;52.26;95443.31;5047271;28;20040;-77
2022/01/29 03:23:59;;;;;;;11.85;6.60;;;;;;;3.97;52.07;95443.94;5062926;28;20032;-78
2022/01/29 03:26:25;;;;;;;8.90;6.47;;;;;;;3.95;51.73;95438.16;5045469;28;20073;-77
2022/01/29 03:28:50;;;;;;;12.00;7.50;;;;;;;3.91;51.70;95444.63;5061862;28;20025;-78
2022/01/29 03:31:16;;;;;;;10.55;6.82;;;;;;;3.92;52.11;95444.47;5061261;28;20036;-77
2022/01/29 03:33:41;;;;;;;11.32;6.22;;;;;;;3.94;51.98;95444.28;5078167;28;20503;-77
2022/01/29 03:36:07;;;;;;;10.85;6.40;;;;;;;3.87;51.94;95440.81;5028691;28;20036;-78
2022/01/29 03:38:32;;;;;;;8.65;6.38;;;;;;;3.83;52.29;95439.56;5080324;28;20028;-78
2022/01/29 03:40:59;;;;;;;10.15;6.95;;;;;;;3.81;52.18;95438.94;5079125;28;20609;-78
2022/01/29 03:43:29;;;;;;;10.00;6.95;;;;;;;3.74;52.46;95436.28;5061791;28;20471;-78
2022/01/29 03:45:55;;;;;;;8.60;6.60;;;;;;;3.77;52.21;95435.13;5062190;28;20433;-78
2022/01/29 03:48:20;;;;;;;7.20;6.50;;;;;;;3.75;52.25;95442.22;5061399;28;20029;-78
2022/01/29 03:50:46;;;;;;;13.02;6.10;;;;;;;3.74;52.50;95441.41;5044618;28;20064;-78
2022/01/29 03:53:11;;;;;;;6.75;6.15;;;;;;;3.73;52.74;95444.13;5079406;28;20078;-78
2022/01/29 03:55:37;;;;;;;7.70;5.97;;;;;;;3.75;52.68;95447.34;5079373;28;20029;-78
2022/01/29 03:58:10;;;;;;;14.52;9.13;;;;;;;3.77;52.87;95441.06;5061555;28;20043;-78
2022/01/29 04:00:35;;;;;;;15.55;8.85;;;;;;;3.78;51.97;95439.28;5056345;28;20033;-78
2022/01/29 04:03:01;;;;;;;10.55;7.43;;;;;;;3.72;52.42;95442.53;5058984;28;20052;-78
2022/01/29 04:05:26;;;;;;;9.68;7.13;;;;;;;3.74;52.14;95438.00;5059121;28;20032;-78
2022/01/29 04:07:52;;;;;;;14.55;7.90;;;;;;;3.70;52.61;95434.19;5040488;28;20664;-78
2022/01/29 04:10:19;;;;;;;16.02;7.93;;;;;;;3.68;52.76;95436.16;5041054;28;20055;-78
2022/01/29 04:12:48;;;;;;;13.15;7.75;;;;;;;3.70;53.08;95440.13;5041444;28;20033;-78
2022/01/29 04:18:12;;;;;;;35.88;17.77;;;;;;;3.71;52.69;95425.50;5032937;22;20072;-77
2022/01/29 04:20:38;;;;;;;27.77;15.27;;;;;;;3.73;53.14;95428.69;5027490;28;20392;-78
2022/01/29 04:23:08;;;;;;;17.95;8.77;;;;;;;3.78;52.67;95424.66;5030272;28;20515;-77
2022/01/29 04:25:34;;;;;;;18.00;11.38;;;;;;;3.77;52.48;95429.97;5019482;28;20097;-78
2022/01/29 04:28:00;;;;;;;18.08;10.75;;;;;;;3.75;53.00;95431.94;5019632;28;20041;-77
2022/01/29 04:30:30;;;;;;;9.23;7.78;;;;;;;3.74;52.65;95433.69;5026838;28;20036;-77
2022/01/29 04:33:15;;;;;;;11.05;8.15;;;;;;;3.73;52.16;95428.69;5034042;28;20033;-78
2022/01/29 04:35:40;;;;;;;10.02;6.80;;;;;;;3.70;52.54;95435.00;5021473;28;20498;-78
2022/01/29 04:38:06;;;;;;;8.77;6.50;;;;;;;3.66;52.29;95432.94;5004461;28;20092;-78
2022/01/29 04:40:33;;;;;;;9.55;6.85;;;;;;;3.55;52.43;95432.38;5018227;28;20535;-77
2022/01/29 04:42:59;;;;;;;10.93;7.00;;;;;;;3.46;52.88;95428.28;5030227;28;20029;-77
2022/01/29 04:45:24;;;;;;;15.73;7.40;;;;;;;3.39;53.07;95447.94;5035365;28;20486;-77
2022/01/29 04:47:50;;;;;;;20.13;8.50;;;;;;;3.27;53.44;95444.97;5031386;28;20033;-78
2022/01/29 04:50:15;;;;;;;15.23;9.00;;;;;;;3.20;53.35;95451.75;5008065;28;20042;-77
2022/01/29 04:52:41;;;;;;;14.82;9.73;;;;;;;3.30;53.29;95443.84;5011287;28;20033;-78
2022/01/29 04:55:07;;;;;;;12.40;7.35;;;;;;;3.35;53.76;95441.53;5022284;28;20179;-78
2022/01/29 04:57:32;;;;;;;12.23;8.10;;;;;;;3.40;53.67;95446.97;4989629;28;20533;-78
2022/01/29 04:59:59;;;;;;;12.90;8.82;;;;;;;3.48;53.18;95446.91;5032367;28;20076;-78
2022/01/29 05:02:24;;;;;;;13.88;9.40;;;;;;;3.48;53.06;95458.97;5013984;28;20029;-77
2022/01/29 05:04:50;;;;;;;18.92;10.40;;;;;;;3.47;53.26;95460.75;5007827;28;20523;-77
2022/01/29 05:07:15;;;;;;;16.08;10.82;;;;;;;3.50;53.22;95455.25;5020477;28;20605;-78
2022/01/29 05:09:41;;;;;;;12.43;9.05;;;;;;;3.54;53.06;95464.22;5019640;28;20037;-78
2022/01/29 05:12:07;;;;;;;21.23;11.25;;;;;;;3.60;53.55;95450.69;5024418;28;20435;-78
2022/01/29 05:14:45;;;;;;;22.77;12.48;;;;;;;3.63;53.20;95456.44;5008883;28;20022;-78
2022/01/29 05:27:59;;;;;;;16.02;10.32;;;;;;;3.60;53.68;95455.03;5016733;28;20574;-77
2022/01/29 05:30:25;;;;;;;16.45;9.75;;;;;;;3.55;54.05;95458.09;5019138;28;20036;-77
2022/01/29 05:32:50;;;;;;;16.13;9.77;;;;;;;3.58;53.39;95462.91;5014803;28;20501;-77
2022/01/29 05:35:16;;;;;;;15.52;10.63;;;;;;;3.56;54.08;95464.84;5004635;28;20040;-78
2022/01/29 05:37:41;;;;;;;20.20;12.55;;;;;;;3.56;53.94;95469.97;5022961;28;20099;-77
2022/01/29 05:40:08;;;;;;;13.30;9.70;;;;;;;3.50;54.61;95464.72;5041747;28;20087;-78
2022/01/29 05:42:33;;;;;;;11.32;8.95;;;;;;;3.36;55.00;95481.69;5014386;28;20101;-78
2022/01/29 05:44:58;;;;;;;15.05;10.10;;;;;;;3.39;55.06;95481.34;5019439;28;20133;-78
2022/01/29 05:47:24;;;;;;;15.60;10.07;;;;;;;3.30;55.12;95483.19;5005300;28;20030;-78
2022/01/29 05:49:49;;;;;;;11.43;7.18;;;;;;;3.25;55.86;95488.03;5008966;28;20040;-78
2022/01/29 05:52:15;;;;;;;13.15;8.80;;;;;;;3.26;55.71;95496.56;5004434;28;20040;-78
2022/01/29 05:54:41;;;;;;;15.77;11.35;;;;;;;3.28;55.68;95499.75;5002572;28;20124;-78
2022/01/29 05:57:06;;;;;;;20.80;13.32;;;;;;;3.33;55.58;95504.38;5024681;28;20033;-78
2022/01/29 05:59:35;;;;;;;15.10;10.35;;;;;;;3.36;55.44;95504.03;5025429;28;20077;-78
2022/01/29 06:02:01;;;;;;;21.60;9.63;;;;;;;3.39;55.18;95512.19;5032728;28;20033;-78
2022/01/29 06:04:26;;;;;;;8.60;6.68;;;;;;;3.26;56.07;95499.13;5023466;28;20034;-77
2022/01/29 06:06:51;;;;;;;24.77;12.82;;;;;;;3.26;55.48;95501.69;5024328;28;20037;-78
2022/01/29 06:09:17;;;;;;;18.25;11.63;;;;;;;3.23;56.00;95504.56;5023546;28;20041;-77
2022/01/29 06:14:17;;;;;;;16.85;11.38;;;;;;;3.26;56.00;95524.81;5298561;22;20051;-77
2022/01/29 06:16:43;;;;;;;14.13;9.15;;;;;;;3.24;56.06;95521.59;5070722;28;20037;-77
2022/01/29 06:19:08;;;;;;;21.83;11.25;;;;;;;3.29;56.17;95514.19;5052711;28;20074;-78
2022/01/29 06:21:34;;;;;;;21.30;11.25;;;;;;;3.36;55.84;95517.69;5037744;28;20044;-78
2022/01/29 06:24:00;;;;;;;29.77;15.00;;;;;;;3.51;55.37;95515.97;5035479;28;20041;-78
2022/01/29 06:26:26;;;;;;;31.75;20.17;;;;;;;3.66;55.05;95515.25;5052581;28;20101;-77
2022/01/29 06:28:51;;;;;;;30.67;17.77;;;;;;;3.87;54.44;95517.97;5070493;28;20338;-77
2022/01/29 06:31:18;;;;;;;19.67;12.45;;;;;;;4.11;53.37;95515.22;5069722;28;20454;-77
2022/01/29 06:33:43;;;;;;;17.85;11.80;;;;;;;4.33;52.78;95510.19;5026757;28;20542;-77
2022/01/29 06:36:09;;;;;;;13.48;9.15;;;;;;;4.58;52.11;95510.75;5070004;28;20033;-77
2022/01/29 06:38:35;;;;;;;18.08;11.35;;;;;;;4.89;51.36;95508.78;5043613;28;20116;-77
2022/01/29 06:41:01;;;;;;;19.73;11.02;;;;;;;5.05;50.14;95523.25;5069677;28;20039;-77
2022/01/29 06:43:28;;;;;;;27.90;13.57;;;;;;;5.13;50.62;95520.56;5027354;28;20032;-77
2022/01/29 06:45:54;;;;;;;21.58;13.82;;;;;;;5.28;50.50;95534.25;5069849;28;20947;-77
2022/01/29 06:48:19;;;;;;;22.80;13.43;;;;;;;5.52;49.01;95527.94;5027917;28;20053;-77
2022/01/29 06:50:45;;;;;;;25.38;13.98;;;;;;;5.64;49.13;95530.84;5062270;28;20044;-78
2022/01/29 06:53:10;;;;;;;21.38;12.70;;;;;;;5.79;48.61;95536.75;5053256;28;20028;-77
2022/01/29 06:55:36;;;;;;;22.40;13.23;;;;;;;5.92;48.69;95542.09;5053745;28;20071;-77
2022/01/29 06:58:01;;;;;;;22.65;11.27;;;;;;;6.01;47.85;95545.31;5051971;28;20039;-79
2022/01/29 07:00:26;;;;;;;12.50;9.35;;;;;;;5.95;47.93;95546.06;5033904;28;20043;-77
2022/01/29 07:02:52;;;;;;;18.63;12.85;;;;;;;6.05;48.11;95545.78;5035281;28;20032;-77
2022/01/29 07:05:17;;;;;;;15.88;10.90;;;;;;;6.10;47.67;95544.22;5069171;28;20043;-76
2022/01/29 07:07:43;;;;;;;33.17;18.23;;;;;;;6.13;47.64;95548.22;5069278;28;20028;-77
2022/01/29 07:10:09;;;;;;;29.15;17.23;;;;;;;6.12;47.24;95534.50;5029267;28;20035;-77
2022/01/29 07:12:38;;;;;;;24.27;13.98;;;;;;;6.10;47.52;95543.44;5034688;28;20047;-77
2022/01/29 07:15:08;;;;;;;24.35;11.88;;;;;;;5.98;47.30;95549.06;5009973;28;20041;-76
2022/01/29 07:17:34;;;;;;;38.85;18.92;;;;;;;5.89;47.79;95552.75;5067573;28;20507;-75
2022/01/29 07:19:59;;;;;;;47.13;21.13;;;;;;;5.89;48.23;95560.50;5069493;28;20049;-76
2022/01/29 07:22:24;;;;;;;42.10;21.95;;;;;;;5.79;48.37;95559.19;5070134;28;20040;-78
2022/01/29 07:24:50;;;;;;;28.35;15.25;;;;;;;5.66;48.23;95558.06;5065785;28;20411;-76
2022/01/29 07:27:16;;;;;;;19.70;12.32;;;;;;;5.60;49.26;95563.16;5069359;28;20039;-77
2022/01/29 07:29:41;;;;;;;11.75;8.57;;;;;;;5.41;49.57;95554.22;5067591;28;20032;-77
2022/01/29 07:32:07;;;;;;;15.13;9.60;;;;;;;5.43;49.76;95563.38;5068169;28;20032;-77
2022/01/29 07:34:32;;;;;;;20.77;10.15;;;;;;;5.44;49.50;95564.19;5067140;28;20103;-78
2022/01/29 07:36:58;;;;;;;15.95;9.43;;;;;;;5.47;49.08;95568.16;5068972;28;20526;-77
2022/01/29 07:39:24;;;;;;;15.43;9.80;;;;;;;5.50;49.58;95567.81;5067383;28;20029;-77
2022/01/29 07:41:49;;;;;;;12.38;8.50;;;;;;;5.33;49.54;95567.22;5034475;28;20036;-77
2022/01/29 07:44:15;;;;;;;8.98;7.10;;;;;;;5.24;49.48;95573.47;5066961;28;20041;-77
2022/01/29 07:46:41;;;;;;;15.85;8.77;;;;;;;4.99;50.05;95572.94;5068068;28;20029;-77
2022/01/29 07:49:06;;;;;;;13.18;9.32;;;;;;;4.99;50.44;95575.50;5051104;28;20032;-78
2022/01/29 07:51:32;;;;;;;22.05;11.05;;;;;;;5.02;50.82;95575.16;5035256;28;20415;-78
2022/01/29 07:53:58;;;;;;;18.40;11.35;;;;;;;5.13;49.96;95574.72;5026501;28;20427;-76
2022/01/29 07:56:23;;;;;;;15.75;10.85;;;;;;;5.17;50.45;95578.53;5035241;28;20089;-78
2022/01/29 07:58:49;;;;;;;23.48;15.35;;;;;;;5.23;50.47;95582.97;5069120;28;20040;-78
2022/01/29 08:01:15;;;;;;;15.88;10.63;;;;;;;5.24;49.86;95584.56;5068585;28;20121;-76
2022/01/29 08:03:46;;;;;;;21.75;15.63;;;;;;;5.22;50.34;95583.97;5069376;28;20114;-77
2022/01/29 08:06:15;;;;;;;9.27;7.90;;;;;;;5.20;50.30;95593.63;5052320;28;20044;-77
2022/01/29 08:08:40;;;;;;;21.10;13.77;;;;;;;5.20;50.64;95593.63;5051667;28;20054;-77
2022/01/29 08:11:07;;;;;;;12.07;8.82;;;;;;;5.19;50.60;95602.34;5049936;28;20029;-77
2022/01/29 08:13:33;;;;;;;25.90;16.25;;;;;;;5.25;50.95;95603.44;5066965;28;20037;-78
2022/01/29 08:15:58;;;;;;;21.20;14.52;;;;;;;5.28;50.95;95596.13;5034110;28;20028;-78
2022/01/29 08:18:24;;;;;;;28.65;17.50;;;;;;;5.27;51.09;95599.69;5067796;28;20040;-78
2022/01/29 08:20:49;;;;;;;24.60;14.93;;;;;;;5.36;50.23;95598.59;5052458;28;20036;-79
2022/01/29 08:23:18;;;;;;;10.13;7.13;;;;;;;5.38;50.27;95596.66;5053329;28;20055;-79
2022/01/29 08:25:43;;;;;;;13.77;9.20;;;;;;;5.26;51.27;95608.41;5070981;28;20081;-78
2022/01/29 08:28:09;;;;;;;11.98;8.60;;;;;;;5.32;50.52;95601.72;5052495;28;20080;-75
2022/01/29 08:30:34;;;;;;;16.52;10.68;;;;;;;5.24;50.76;95600.06;5053405;28;20032;-76
2022/01/29 08:33:00;;;;;;;23.42;14.07;;;;;;;5.30;51.39;95612.22;5053700;28;20077;-77
2022/01/29 08:35:26;;;;;;;24.73;15.20;;;;;;;5.54;50.72;95611.13;5037259;28;20044;-76
2022/01/29 08:37:51;;;;;;;34.17;18.75;;;;;;;5.77;50.07;95610.97;5075815;28;20531;-77
2022/01/29 08:40:17;;;;;;;14.68;10.02;;;;;;;6.07;48.92;95606.56;5072715;28;20041;-77
2022/01/29 08:42:43;;;;;;;18.92;12.63;;;;;;;6.45;48.05;95608.88;5047071;28;20032;-77
2022/01/29 08:45:09;;;;;;;21.30;13.02;;;;;;;6.72;48.17;95607.31;5071962;28;20380;-77
2022/01/29 08:47:34;;;;;;;15.45;10.75;;;;;;;7.00;46.87;95602.94;5070192;28;20032;-78
2022/01/29 08:50:04;;;;;;;17.55;11.13;;;;;;;7.13;46.74;95600.41;5055183;28;20033;-78
2022/01/29 08:52:30;;;;;;;15.02;9.23;;;;;;;7.00;46.30;95612.47;5042742;28;20040;-78
2022/01/29 08:54:56;;;;;;;9.18;6.93;;;;;;;6.93;46.62;95607.25;5038602;28;20048;-78
2022/01/29 08:57:55;;;;;;;13.73;8.23;;;;;;;6.86;46.82;95617.56;5055136;28;20679;-77
2022/01/29 09:00:20;;;;;;;11.07;8.50;;;;;;;6.85;46.83;95610.78;5057209;28;20032;-77
2022/01/29 09:02:49;;;;;;;16.23;8.40;;;;;;;6.78;46.92;95611.72;5072179;28;20040;-77
2022/01/29 09:05:14;;;;;;;31.83;13.38;;;;;;;6.78;47.24;95625.44;5054793;28;20040;-79
2022/01/29 09:07:40;;;;;;;14.07;9.57;;;;;;;6.63;47.22;95617.78;5072709;28;20572;-78
2022/01/29 09:10:06;;;;;;;7.95;5.95;;;;;;;6.45;47.55;95620.00;5074104;28;20033;-78
2022/01/29 09:12:32;;;;;;;12.05;7.35;;;;;;;6.25;48.39;95626.78;5071124;28;20028;-77
2022/01/29 09:14:57;;;;;;;14.40;8.20;;;;;;;6.10;49.05;95626.84;5053928;28;20025;-78
2022/01/29 09:17:23;;;;;;;13.73;8.30;;;;;;;6.05;49.28;95618.06;5038158;28;20036;-76
2022/01/29 09:19:48;;;;;;;18.45;11.45;;;;;;;6.11;49.23;95628.44;5072393;28;20024;-77
2022/01/29 09:22:14;;;;;;;12.27;9.15;;;;;;;6.10;49.12;95631.22;5054006;28;20492;-77
2022/01/29 09:24:39;;;;;;;13.70;8.70;;;;;;;6.07;48.74;95611.72;5038819;28;20056;-77
2022/01/29 09:27:05;;;;;;;15.05;8.23;;;;;;;5.96;48.82;95609.63;5053728;28;20035;-77
2022/01/29 09:29:31;;;;;;;8.50;6.38;;;;;;;5.84;49.84;95609.25;5036883;28;20041;-77
2022/01/29 09:31:56;;;;;;;26.50;15.00;;;;;;;5.89;50.04;95614.69;5038975;28;20492;-78
2022/01/29 09:34:22;;;;;;;22.75;12.38;;;;;;;5.94;48.93;95607.22;5036373;28;20067;-76
2022/01/29 09:36:47;;;;;;;10.40;7.97;;;;;;;5.95;48.76;95608.81;5072122;28;20093;-76
2022/01/29 09:39:13;;;;;;;10.23;9.07;;;;;;;5.96;48.54;95605.25;5041299;28;20032;-76
2022/01/29 09:41:42;;;;;;;12.43;8.20;;;;;;;5.81;48.94;95609.63;5061706;28;20090;-78
2022/01/29 09:44:07;;;;;;;11.43;7.65;;;;;;;5.69;49.04;95611.91;5043021;28;20044;-77
2022/01/29 09:46:33;;;;;;;12.60;8.05;;;;;;;5.63;49.52;95622.13;5076874;28;20032;-77
2022/01/29 09:48:59;;;;;;;18.35;7.53;;;;;;;5.58;48.50;95627.84;5061869;28;20412;-76
2022/01/29 09:51:25;;;;;;;12.38;7.32;;;;;;;5.45;49.33;95625.09;5049791;28;20036;-76
2022/01/29 09:53:50;;;;;;;13.55;7.95;;;;;;;5.64;48.89;95610.84;5036772;28;20028;-75
2022/01/29 09:56:16;;;;;;;6.40;5.80;;;;;;;5.77;48.26;95613.56;5061895;28;20870;-78
2022/01/29 09:58:42;;;;;;;8.40;6.38;;;;;;;5.88;48.77;95618.25;5053631;28;20435;-77
2022/01/29 10:01:07;;;;;;;10.73;7.00;;;;;;;6.04;48.14;95611.31;5069648;28;20466;-76
2022/01/29 10:03:33;;;;;;;10.05;7.95;;;;;;;6.12;48.04;95608.59;5051526;28;20020;-76
2022/01/29 10:06:03;;;;;;;8.38;6.32;;;;;;;6.24;47.13;95612.28;5035847;28;20059;-76
2022/01/29 10:08:29;;;;;;;10.38;6.63;;;;;;;6.15;47.94;95613.38;5052024;28;20036;-78
2022/01/29 10:10:58;;;;;;;21.17;10.10;;;;;;;6.05;48.79;95618.06;5037888;28;20550;-77
2022/01/29 10:13:25;;;;;;;13.85;10.82;;;;;;;6.01;48.46;95617.59;5052791;28;20051;-76
2022/01/29 10:15:51;;;;;;;21.42;12.25;;;;;;;6.05;48.42;95618.06;5036671;28;20842;-77
2022/01/29 10:18:23;;;;;;;11.38;9.20;;;;;;;5.96;49.38;95620.75;5069572;28;20622;-77
2022/01/29 10:20:50;;;;;;;21.55;12.05;;;;;;;5.92;49.12;95635.00;5053259;28;20047;-77
2022/01/29 10:23:15;;;;;;;19.08;9.82;;;;;;;5.92;49.14;95616.94;5052324;28;20036;-77
2022/01/29 10:25:43;;;;;;;16.00;9.32;;;;;;;5.91;49.84;95617.91;5069019;28;20060;-76
2022/01/29 10:28:19;;;;;;;20.92;10.88;;;;;;;5.81;49.04;95611.41;5035876;28;20029;-75
2022/01/29 10:30:51;;;;;;;15.48;10.05;;;;;;;5.64;49.95;95600.50;5034415;28;20060;-74
2022/01/29 10:33:28;;;;;;;19.20;10.38;;;;;;;5.52;50.17;95607.91;5052178;28;20040;-76
2022/01/29 10:35:55;;;;;;;16.02;8.85;;;;;;;5.53;51.14;95613.88;5068860;28;20036;-76
2022/01/29 10:38:26;;;;;;;27.33;14.27;;;;;;;5.61;50.74;95606.03;5035604;28;20473;-76
2022/01/29 10:41:14;;;;;;;15.30;9.38;;;;;;;5.53;50.22;95611.28;5035088;28;20033;-76
2022/01/29 10:46:42;;;;;;;11.02;8.30;;;;;;;5.26;51.70;95608.41;5052610;28;20514;-77
2022/01/29 10:49:08;;;;;;;12.93;8.65;;;;;;;5.29;51.43;95613.19;5051787;28;20134;-76
2022/01/29 10:51:34;;;;;;;13.82;8.10;;;;;;;5.18;51.95;95615.41;5034346;28;20040;-77
2022/01/29 10:54:16;;;;;;;10.27;7.78;;;;;;;5.11;51.59;95621.28;5051316;28;20032;-76
2022/01/29 10:57:05;;;;;;;10.00;7.22;;;;;;;4.94;52.60;95619.88;5053963;28;20113;-77
2022/01/29 10:59:33;;;;;;;9.85;7.13;;;;;;;4.85;53.35;95615.75;5026984;28;20127;-77
2022/01/29 11:02:07;;;;;;;9.35;8.45;;;;;;;4.82;53.42;95618.69;5035472;28;20478;-76
2022/01/29 11:04:34;;;;;;;11.48;8.75;;;;;;;4.68;53.51;95615.13;5050969;28;20059;-76
2022/01/29 11:07:04;;;;;;;11.80;9.45;;;;;;;4.60;54.15;95616.97;5034987;28;20440;-75
2022/01/29 11:09:29;;;;;;;9.32;8.27;;;;;;;4.48;53.81;95616.59;5069120;28;20029;-76
2022/01/29 11:11:58;;;;;;;8.95;7.75;;;;;;;4.35;54.09;95603.50;5069116;28;20040;-76
2022/01/29 11:14:24;;;;;;;23.75;11.93;;;;;;;4.31;54.82;95605.63;5069089;28;20036;-77
2022/01/29 11:16:51;;;;;;;14.15;9.57;;;;;;;4.42;54.80;95604.41;5051509;28;20037;-76
2022/01/29 11:19:16;;;;;;;16.35;11.07;;;;;;;4.53;53.69;95591.09;5051304;28;20089;-76
2022/01/29 11:21:43;;;;;;;13.05;9.68;;;;;;;4.61;52.78;95601.34;5069441;28;20075;-76
2022/01/29 11:24:09;;;;;;;10.65;8.40;;;;;;;4.67;53.51;95603.22;5034652;28;20486;-76
2022/01/29 11:26:35;;;;;;;12.73;9.82;;;;;;;4.85;52.61;95602.06;5033901;28;20056;-76
2022/01/29 11:29:24;;;;;;;9.52;8.40;;;;;;;4.92;52.05;95597.84;5035163;28;20040;-76
2022/01/29 11:32:21;;;;;;;10.93;8.52;;;;;;;4.92;52.24;95600.41;5068918;28;20028;-76
2022/01/29 11:34:59;;;;;;;25.73;13.20;;;;;;;4.98;52.27;95599.69;5068540;28;20036;-76
2022/01/29 11:38:11;;;;;;;16.27;10.55;;;;;;;4.97;51.55;95592.94;5068979;28;20040;-76
2022/01/29 11:40:36;;;;;;;13.13;8.85;;;;;;;4.87;52.22;95597.53;5056408;28;20133;-76
2022/01/29 11:43:03;;;;;;;14.73;9.45;;;;;;;4.91;52.25;95593.66;5069217;28;20063;-76
2022/01/29 11:45:49;;;;;;;16.92;10.70;;;;;;;4.99;52.55;95596.13;5067453;28;20033;-76
2022/01/29 11:48:24;;;;;;;15.55;10.30;;;;;;;5.05;51.53;95595.44;5070248;28;20067;-78
2022/01/29 11:50:50;;;;;;;19.23;9.57;;;;;;;5.21;51.51;95594.47;5069030;28;20096;-76
2022/01/29 11:53:16;;;;;;;18.75;10.05;;;;;;;5.23;50.58;95603.59;5051415;28;20456;-76